Portada
METAR-TAF:

METAR-TAF

Aeroports :

Lahaina, Hawaii, Estats Units d'Amèrica

latitud: 21-01N, longitud: 156-38W, altitud: 40 m

METAR: manca

Hora: 21:24 (07:24 UTC)

Pronòstic

L'informe es va fer fa 8 hores i 4 minuts, a les 23:20 UTC
Pronòstic vàlid del 19 a les 00 UTC al 19 a les 24 UTC
Vent 16 kt del Est/Nord-Est amb ràfegues de 24 kt
Visibilitat: 10 km
Escasses núvols a una alçada de 3500 ft
Núvols disperses a una alçada de 5000 ft
A partir de les 19 a les 0600 UTC
Vent 9 kt del Nord-Est amb ràfegues de 14 kt
Visibilitat: 10 km
Escasses núvols a una alçada de 3000 ft
Cel ennuvolat a una alçada de 4500 ft
xàfecs en les proximitats
A partir de les 19 a les 2000 UTC
Vent 14 kt del Est/Nord-Est amb ràfegues de 23 kt
Visibilitat: 10 km
Escasses núvols a una alçada de 3500 ft
Núvols disperses a una alçada de 5000 ft

TAF: PHJH 182320Z 1900/1924 06016G24KT P6SM FEW035 SCT050 FM190600 05009G14KT P6SM VCSH FEW030 BKN045 FM192000 06014G23KT P6SM FEW035 SCT050 AMD NOT SKED

Observacions i pronòstics meteorològics de més de 4000 aeroports (METAR i TAF).

Les estacions disponibles són els punts grocs i vermells al mapa.

Posi el ratolí al punt desitjat per veure el nom de l'estació.

Feu clic per veure les observacions i els pronòstics meteorològics.

Per canviar el mapa: feu clic els botons verds amb una creu de color negre per apropar; al botó verd amb un guió per allunyar la imatge; o en les fletxes verdes per a mapes adjacents.


METAR-TAF: